sensor_id;sensor_type;location;lat;lon;timestamp;P1;durP1;ratioP1;P2;durP2;ratioP2
12554;SDS011;6343;50.868;4.700;2022-10-16T00:01:09;1.87;;;1.00;;
12554;SDS011;6343;50.868;4.700;2022-10-16T00:03:37;1.90;;;1.10;;
12554;SDS011;6343;50.868;4.700;2022-10-16T00:06:03;2.93;;;1.00;;
12554;SDS011;6343;50.868;4.700;2022-10-16T00:08:30;3.83;;;1.20;;
12554;SDS011;6343;50.868;4.700;2022-10-16T00:11:00;2.43;;;1.00;;
12554;SDS011;6343;50.868;4.700;2022-10-16T00:13:28;2.23;;;1.20;;
12554;SDS011;6343;50.868;4.700;2022-10-16T00:15:54;2.87;;;1.03;;
12554;SDS011;6343;50.868;4.700;2022-10-16T00:18:21;4.10;;;1.10;;
12554;SDS011;6343;50.868;4.700;2022-10-16T00:20:47;2.70;;;1.10;;
12554;SDS011;6343;50.868;4.700;2022-10-16T00:23:13;1.93;;;1.00;;
12554;SDS011;6343;50.868;4.700;2022-10-16T00:25:39;3.30;;;1.20;;
12554;SDS011;6343;50.868;4.700;2022-10-16T00:28:05;5.80;;;1.33;;
12554;SDS011;6343;50.868;4.700;2022-10-16T00:30:31;2.53;;;0.80;;
12554;SDS011;6343;50.868;4.700;2022-10-16T00:32:57;2.43;;;0.97;;
12554;SDS011;6343;50.868;4.700;2022-10-16T00:35:23;1.60;;;1.23;;
12554;SDS011;6343;50.868;4.700;2022-10-16T00:37:49;1.43;;;1.07;;
12554;SDS011;6343;50.868;4.700;2022-10-16T00:40:16;3.03;;;1.00;;
12554;SDS011;6343;50.868;4.700;2022-10-16T00:42:42;1.37;;;0.80;;
12554;SDS011;6343;50.868;4.700;2022-10-16T00:45:08;1.10;;;0.87;;
12554;SDS011;6343;50.868;4.700;2022-10-16T00:47:36;1.50;;;1.00;;
12554;SDS011;6343;50.868;4.700;2022-10-16T00:50:10;4.27;;;1.20;;
12554;SDS011;6343;50.868;4.700;2022-10-16T00:52:39;2.90;;;1.10;;
12554;SDS011;6343;50.868;4.700;2022-10-16T00:55:07;1.37;;;1.00;;
12554;SDS011;6343;50.868;4.700;2022-10-16T00:57:34;1.50;;;1.20;;
12554;SDS011;6343;50.868;4.700;2022-10-16T01:00:01;1.10;;;0.90;;
12554;SDS011;6343;50.868;4.700;2022-10-16T01:02:27;2.33;;;0.97;;
12554;SDS011;6343;50.868;4.700;2022-10-16T01:04:53;5.07;;;1.30;;
12554;SDS011;6343;50.868;4.700;2022-10-16T01:09:57;2.70;;;1.07;;
12554;SDS011;6343;50.868;4.700;2022-10-16T01:13:28;1.10;;;0.83;;
12554;SDS011;6343;50.868;4.700;2022-10-16T01:15:30;1.20;;;1.07;;
12554;SDS011;6343;50.868;4.700;2022-10-16T01:18:08;1.87;;;1.17;;
12554;SDS011;6343;50.868;4.700;2022-10-16T01:21:08;4.20;;;1.10;;
12554;SDS011;6343;50.868;4.700;2022-10-16T01:26:14;2.77;;;1.20;;
12554;SDS011;6343;50.868;4.700;2022-10-16T01:28:53;1.53;;;1.20;;
12554;SDS011;6343;50.868;4.700;2022-10-16T01:31:22;3.20;;;1.10;;
12554;SDS011;6343;50.868;4.700;2022-10-16T01:33:51;1.90;;;0.97;;
12554;SDS011;6343;50.868;4.700;2022-10-16T01:36:24;3.57;;;1.10;;
12554;SDS011;6343;50.868;4.700;2022-10-16T01:38:51;3.00;;;1.20;;
12554;SDS011;6343;50.868;4.700;2022-10-16T01:41:22;3.07;;;1.10;;
12554;SDS011;6343;50.868;4.700;2022-10-16T01:43:57;1.43;;;0.90;;
12554;SDS011;6343;50.868;4.700;2022-10-16T01:46:26;1.30;;;0.80;;
12554;SDS011;6343;50.868;4.700;2022-10-16T01:48:53;2.17;;;1.00;;
12554;SDS011;6343;50.868;4.700;2022-10-16T01:51:20;1.83;;;1.03;;
12554;SDS011;6343;50.868;4.700;2022-10-16T01:53:48;1.97;;;0.90;;
12554;SDS011;6343;50.868;4.700;2022-10-16T01:56:16;3.77;;;1.10;;
12554;SDS011;6343;50.868;4.700;2022-10-16T01:58:45;4.10;;;0.90;;
12554;SDS011;6343;50.868;4.700;2022-10-16T02:01:13;1.10;;;0.80;;
12554;SDS011;6343;50.868;4.700;2022-10-16T02:03:40;2.00;;;1.03;;
12554;SDS011;6343;50.868;4.700;2022-10-16T02:06:08;2.00;;;1.13;;
12554;SDS011;6343;50.868;4.700;2022-10-16T02:08:34;3.33;;;0.93;;
12554;SDS011;6343;50.868;4.700;2022-10-16T02:11:01;1.27;;;0.80;;
12554;SDS011;6343;50.868;4.700;2022-10-16T02:15:56;2.03;;;1.10;;
12554;SDS011;6343;50.868;4.700;2022-10-16T02:18:22;2.00;;;0.90;;
12554;SDS011;6343;50.868;4.700;2022-10-16T02:20:53;1.30;;;1.03;;
12554;SDS011;6343;50.868;4.700;2022-10-16T02:23:24;1.90;;;1.10;;
12554;SDS011;6343;50.868;4.700;2022-10-16T02:25:53;3.93;;;1.40;;
12554;SDS011;6343;50.868;4.700;2022-10-16T02:28:22;2.63;;;1.10;;
12554;SDS011;6343;50.868;4.700;2022-10-16T02:30:52;3.80;;;1.20;;
12554;SDS011;6343;50.868;4.700;2022-10-16T02:33:21;1.30;;;1.10;;
12554;SDS011;6343;50.868;4.700;2022-10-16T02:35:47;1.43;;;0.90;;
12554;SDS011;6343;50.868;4.700;2022-10-16T02:38:15;5.10;;;1.10;;
12554;SDS011;6343;50.868;4.700;2022-10-16T02:40:42;1.10;;;0.90;;
12554;SDS011;6343;50.868;4.700;2022-10-16T02:43:08;1.17;;;1.00;;
12554;SDS011;6343;50.868;4.700;2022-10-16T02:45:35;3.37;;;0.80;;
12554;SDS011;6343;50.868;4.700;2022-10-16T02:48:01;3.23;;;1.50;;
12554;SDS011;6343;50.868;4.700;2022-10-16T02:50:27;1.63;;;0.97;;
12554;SDS011;6343;50.868;4.700;2022-10-16T02:52:53;5.07;;;1.20;;
12554;SDS011;6343;50.868;4.700;2022-10-16T02:55:19;2.67;;;1.00;;
12554;SDS011;6343;50.868;4.700;2022-10-16T02:57:45;3.73;;;1.20;;
12554;SDS011;6343;50.868;4.700;2022-10-16T03:00:13;1.30;;;1.00;;
12554;SDS011;6343;50.868;4.700;2022-10-16T03:02:39;2.67;;;1.00;;
12554;SDS011;6343;50.868;4.700;2022-10-16T03:05:06;1.20;;;0.80;;
12554;SDS011;6343;50.868;4.700;2022-10-16T03:07:33;2.13;;;1.40;;
12554;SDS011;6343;50.868;4.700;2022-10-16T03:09:59;4.30;;;1.20;;
12554;SDS011;6343;50.868;4.700;2022-10-16T03:12:28;1.63;;;1.23;;
12554;SDS011;6343;50.868;4.700;2022-10-16T03:14:55;2.57;;;1.17;;
12554;SDS011;6343;50.868;4.700;2022-10-16T03:17:21;2.50;;;1.17;;
12554;SDS011;6343;50.868;4.700;2022-10-16T03:19:47;3.20;;;1.63;;
12554;SDS011;6343;50.868;4.700;2022-10-16T03:22:14;5.87;;;1.33;;
12554;SDS011;6343;50.868;4.700;2022-10-16T03:24:40;2.00;;;1.33;;
12554;SDS011;6343;50.868;4.700;2022-10-16T03:27:06;2.87;;;1.00;;
12554;SDS011;6343;50.868;4.700;2022-10-16T03:29:32;1.10;;;1.00;;
12554;SDS011;6343;50.868;4.700;2022-10-16T03:31:59;1.83;;;1.00;;
12554;SDS011;6343;50.868;4.700;2022-10-16T03:34:25;5.17;;;1.10;;
12554;SDS011;6343;50.868;4.700;2022-10-16T03:36:51;3.23;;;1.00;;
12554;SDS011;6343;50.868;4.700;2022-10-16T03:39:17;1.73;;;1.03;;
12554;SDS011;6343;50.868;4.700;2022-10-16T03:41:43;3.43;;;1.40;;
12554;SDS011;6343;50.868;4.700;2022-10-16T03:44:11;1.33;;;1.03;;
12554;SDS011;6343;50.868;4.700;2022-10-16T03:46:37;3.53;;;1.40;;
12554;SDS011;6343;50.868;4.700;2022-10-16T03:49:03;2.07;;;1.20;;
12554;SDS011;6343;50.868;4.700;2022-10-16T03:51:29;3.57;;;1.43;;
12554;SDS011;6343;50.868;4.700;2022-10-16T03:53:55;1.93;;;1.13;;
12554;SDS011;6343;50.868;4.700;2022-10-16T03:56:21;2.27;;;1.20;;
12554;SDS011;6343;50.868;4.700;2022-10-16T03:58:48;2.63;;;1.20;;
12554;SDS011;6343;50.868;4.700;2022-10-16T04:01:14;1.33;;;1.23;;
12554;SDS011;6343;50.868;4.700;2022-10-16T04:03:40;3.03;;;1.37;;
12554;SDS011;6343;50.868;4.700;2022-10-16T04:06:06;2.50;;;1.20;;
12554;SDS011;6343;50.868;4.700;2022-10-16T04:08:32;4.57;;;1.27;;
12554;SDS011;6343;50.868;4.700;2022-10-16T04:11:00;4.67;;;1.30;;
12554;SDS011;6343;50.868;4.700;2022-10-16T04:13:26;3.03;;;1.10;;
12554;SDS011;6343;50.868;4.700;2022-10-16T04:15:52;3.00;;;1.20;;
12554;SDS011;6343;50.868;4.700;2022-10-16T04:18:18;3.17;;;1.23;;
12554;SDS011;6343;50.868;4.700;2022-10-16T04:20:44;2.13;;;1.30;;
12554;SDS011;6343;50.868;4.700;2022-10-16T04:23:11;3.17;;;1.20;;
12554;SDS011;6343;50.868;4.700;2022-10-16T04:25:37;3.53;;;1.50;;
12554;SDS011;6343;50.868;4.700;2022-10-16T04:28:03;2.10;;;1.40;;
12554;SDS011;6343;50.868;4.700;2022-10-16T04:30:29;2.00;;;1.23;;
12554;SDS011;6343;50.868;4.700;2022-10-16T04:32:55;6.60;;;1.53;;
12554;SDS011;6343;50.868;4.700;2022-10-16T04:35:21;2.47;;;1.30;;
12554;SDS011;6343;50.868;4.700;2022-10-16T04:37:47;4.33;;;1.17;;
12554;SDS011;6343;50.868;4.700;2022-10-16T04:40:14;2.27;;;1.60;;
12554;SDS011;6343;50.868;4.700;2022-10-16T04:42:40;2.37;;;1.20;;
12554;SDS011;6343;50.868;4.700;2022-10-16T04:45:06;2.03;;;1.27;;
12554;SDS011;6343;50.868;4.700;2022-10-16T04:47:33;2.93;;;1.50;;
12554;SDS011;6343;50.868;4.700;2022-10-16T04:49:59;1.83;;;1.13;;
12554;SDS011;6343;50.868;4.700;2022-10-16T04:52:27;1.97;;;1.30;;
12554;SDS011;6343;50.868;4.700;2022-10-16T04:54:53;2.50;;;1.60;;
12554;SDS011;6343;50.868;4.700;2022-10-16T04:57:21;3.53;;;1.40;;
12554;SDS011;6343;50.868;4.700;2022-10-16T04:59:47;4.00;;;1.50;;
12554;SDS011;6343;50.868;4.700;2022-10-16T05:02:13;2.50;;;1.43;;
12554;SDS011;6343;50.868;4.700;2022-10-16T05:04:39;2.40;;;1.50;;
12554;SDS011;6343;50.868;4.700;2022-10-16T05:07:05;5.10;;;1.33;;
12554;SDS011;6343;50.868;4.700;2022-10-16T05:09:31;2.23;;;1.27;;
12554;SDS011;6343;50.868;4.700;2022-10-16T05:11:57;4.27;;;1.33;;
12554;SDS011;6343;50.868;4.700;2022-10-16T05:14:23;2.40;;;1.50;;
12554;SDS011;6343;50.868;4.700;2022-10-16T05:16:49;2.43;;;1.40;;
12554;SDS011;6343;50.868;4.700;2022-10-16T05:19:16;5.77;;;1.80;;
12554;SDS011;6343;50.868;4.700;2022-10-16T05:21:42;2.37;;;1.50;;
12554;SDS011;6343;50.868;4.700;2022-10-16T05:24:08;4.20;;;1.80;;
12554;SDS011;6343;50.868;4.700;2022-10-16T05:26:35;4.80;;;1.43;;
12554;SDS011;6343;50.868;4.700;2022-10-16T05:29:01;6.97;;;1.57;;
12554;SDS011;6343;50.868;4.700;2022-10-16T05:31:28;2.43;;;1.50;;
12554;SDS011;6343;50.868;4.700;2022-10-16T05:33:57;2.30;;;1.50;;
12554;SDS011;6343;50.868;4.700;2022-10-16T05:36:24;3.13;;;1.43;;
12554;SDS011;6343;50.868;4.700;2022-10-16T05:38:50;1.93;;;1.60;;
12554;SDS011;6343;50.868;4.700;2022-10-16T05:41:16;5.03;;;1.53;;
12554;SDS011;6343;50.868;4.700;2022-10-16T05:43:46;5.20;;;1.47;;
12554;SDS011;6343;50.868;4.700;2022-10-16T05:46:12;2.13;;;1.27;;
12554;SDS011;6343;50.868;4.700;2022-10-16T05:48:38;3.33;;;1.40;;
12554;SDS011;6343;50.868;4.700;2022-10-16T05:51:05;2.07;;;1.40;;
12554;SDS011;6343;50.868;4.700;2022-10-16T05:53:33;5.10;;;1.50;;
12554;SDS011;6343;50.868;4.700;2022-10-16T05:55:59;2.60;;;1.40;;
12554;SDS011;6343;50.868;4.700;2022-10-16T05:58:30;3.57;;;1.50;;
12554;SDS011;6343;50.868;4.700;2022-10-16T06:01:00;4.40;;;2.60;;
12554;SDS011;6343;50.868;4.700;2022-10-16T06:03:27;1.83;;;1.30;;
12554;SDS011;6343;50.868;4.700;2022-10-16T06:05:53;3.43;;;1.40;;
12554;SDS011;6343;50.868;4.700;2022-10-16T06:08:20;3.43;;;1.30;;
12554;SDS011;6343;50.868;4.700;2022-10-16T06:10:46;2.07;;;1.30;;
12554;SDS011;6343;50.868;4.700;2022-10-16T06:13:13;4.20;;;1.40;;
12554;SDS011;6343;50.868;4.700;2022-10-16T06:15:39;3.77;;;1.70;;
12554;SDS011;6343;50.868;4.700;2022-10-16T06:18:07;2.00;;;1.50;;
12554;SDS011;6343;50.868;4.700;2022-10-16T06:20:33;2.27;;;1.43;;
12554;SDS011;6343;50.868;4.700;2022-10-16T06:22:59;2.93;;;1.40;;
12554;SDS011;6343;50.868;4.700;2022-10-16T06:25:25;2.20;;;1.43;;
12554;SDS011;6343;50.868;4.700;2022-10-16T06:27:51;1.90;;;1.40;;
12554;SDS011;6343;50.868;4.700;2022-10-16T06:30:17;3.50;;;1.43;;
12554;SDS011;6343;50.868;4.700;2022-10-16T06:32:44;3.53;;;1.53;;
12554;SDS011;6343;50.868;4.700;2022-10-16T06:35:10;3.63;;;1.47;;
12554;SDS011;6343;50.868;4.700;2022-10-16T06:37:36;3.50;;;1.60;;
12554;SDS011;6343;50.868;4.700;2022-10-16T06:40:02;2.53;;;1.70;;
12554;SDS011;6343;50.868;4.700;2022-10-16T06:42:29;4.03;;;1.67;;
12554;SDS011;6343;50.868;4.700;2022-10-16T06:44:55;2.27;;;1.40;;
12554;SDS011;6343;50.868;4.700;2022-10-16T06:47:22;5.23;;;1.93;;
12554;SDS011;6343;50.868;4.700;2022-10-16T06:49:48;4.37;;;1.50;;
12554;SDS011;6343;50.868;4.700;2022-10-16T06:52:14;3.10;;;1.60;;
12554;SDS011;6343;50.868;4.700;2022-10-16T06:54:40;4.23;;;1.83;;
12554;SDS011;6343;50.868;4.700;2022-10-16T06:57:06;2.93;;;1.60;;
12554;SDS011;6343;50.868;4.700;2022-10-16T06:59:32;3.20;;;1.60;;
12554;SDS011;6343;50.868;4.700;2022-10-16T07:01:58;5.03;;;1.73;;
12554;SDS011;6343;50.868;4.700;2022-10-16T07:04:24;1.90;;;1.60;;
12554;SDS011;6343;50.868;4.700;2022-10-16T07:06:50;4.63;;;1.90;;
12554;SDS011;6343;50.868;4.700;2022-10-16T07:09:16;4.77;;;1.40;;
12554;SDS011;6343;50.868;4.700;2022-10-16T07:11:42;4.83;;;1.57;;
12554;SDS011;6343;50.868;4.700;2022-10-16T07:14:15;2.90;;;1.60;;
12554;SDS011;6343;50.868;4.700;2022-10-16T07:16:42;3.37;;;1.70;;
12554;SDS011;6343;50.868;4.700;2022-10-16T07:19:08;3.30;;;1.70;;
12554;SDS011;6343;50.868;4.700;2022-10-16T07:21:34;1.97;;;1.70;;
12554;SDS011;6343;50.868;4.700;2022-10-16T07:24:00;2.47;;;1.53;;
12554;SDS011;6343;50.868;4.700;2022-10-16T07:26:27;4.43;;;2.10;;
12554;SDS011;6343;50.868;4.700;2022-10-16T07:28:53;3.20;;;1.70;;
12554;SDS011;6343;50.868;4.700;2022-10-16T07:31:20;2.10;;;1.50;;
12554;SDS011;6343;50.868;4.700;2022-10-16T07:33:46;2.43;;;1.90;;
12554;SDS011;6343;50.868;4.700;2022-10-16T07:36:13;3.23;;;1.70;;
12554;SDS011;6343;50.868;4.700;2022-10-16T07:38:40;5.00;;;1.93;;
12554;SDS011;6343;50.868;4.700;2022-10-16T07:41:07;2.93;;;2.10;;
12554;SDS011;6343;50.868;4.700;2022-10-16T07:43:34;3.97;;;1.90;;
12554;SDS011;6343;50.868;4.700;2022-10-16T07:46:01;3.93;;;1.80;;
12554;SDS011;6343;50.868;4.700;2022-10-16T07:48:27;2.67;;;1.40;;
12554;SDS011;6343;50.868;4.700;2022-10-16T07:51:04;3.50;;;1.73;;
12554;SDS011;6343;50.868;4.700;2022-10-16T07:53:30;3.93;;;1.93;;
12554;SDS011;6343;50.868;4.700;2022-10-16T07:56:00;5.20;;;1.93;;
12554;SDS011;6343;50.868;4.700;2022-10-16T07:58:27;4.00;;;1.70;;
12554;SDS011;6343;50.868;4.700;2022-10-16T08:00:53;5.17;;;1.70;;
12554;SDS011;6343;50.868;4.700;2022-10-16T08:03:19;4.13;;;2.23;;
12554;SDS011;6343;50.868;4.700;2022-10-16T08:05:45;2.10;;;1.70;;
12554;SDS011;6343;50.868;4.700;2022-10-16T08:08:12;4.03;;;2.40;;
12554;SDS011;6343;50.868;4.700;2022-10-16T08:10:39;3.33;;;1.57;;
12554;SDS011;6343;50.868;4.700;2022-10-16T08:13:05;4.23;;;1.87;;
12554;SDS011;6343;50.868;4.700;2022-10-16T08:15:31;5.57;;;1.70;;
12554;SDS011;6343;50.868;4.700;2022-10-16T08:17:58;3.23;;;1.90;;
12554;SDS011;6343;50.868;4.700;2022-10-16T08:20:25;4.67;;;1.70;;
12554;SDS011;6343;50.868;4.700;2022-10-16T08:22:51;3.60;;;1.50;;
12554;SDS011;6343;50.868;4.700;2022-10-16T08:25:18;4.43;;;1.50;;
12554;SDS011;6343;50.868;4.700;2022-10-16T08:27:45;4.57;;;1.40;;
12554;SDS011;6343;50.868;4.700;2022-10-16T08:30:11;1.77;;;1.47;;
12554;SDS011;6343;50.868;4.700;2022-10-16T08:32:37;3.93;;;1.47;;
12554;SDS011;6343;50.868;4.700;2022-10-16T08:35:03;3.47;;;1.50;;
12554;SDS011;6343;50.868;4.700;2022-10-16T08:37:30;4.30;;;1.50;;
12554;SDS011;6343;50.868;4.700;2022-10-16T08:39:56;4.83;;;1.50;;
12554;SDS011;6343;50.868;4.700;2022-10-16T08:50:24;7.47;;;2.00;;
12554;SDS011;6343;50.868;4.700;2022-10-16T08:52:52;3.33;;;1.30;;
12554;SDS011;6343;50.868;4.700;2022-10-16T08:55:37;3.27;;;1.43;;
12554;SDS011;6343;50.868;4.700;2022-10-16T08:58:10;4.00;;;1.50;;
12554;SDS011;6343;50.868;4.700;2022-10-16T09:00:36;5.37;;;1.30;;
12554;SDS011;6343;50.868;4.700;2022-10-16T09:05:57;10.80;;;1.03;;
12554;SDS011;6343;50.868;4.700;2022-10-16T09:10:58;1.60;;;1.00;;
12554;SDS011;6343;50.868;4.700;2022-10-16T09:16:22;5.33;;;1.03;;
12554;SDS011;6343;50.868;4.700;2022-10-16T09:21:35;5.23;;;1.40;;
12554;SDS011;6343;50.868;4.700;2022-10-16T09:24:11;4.97;;;1.17;;
12554;SDS011;6343;50.868;4.700;2022-10-16T09:26:37;4.17;;;1.40;;
12554;SDS011;6343;50.868;4.700;2022-10-16T09:29:03;2.47;;;1.10;;
12554;SDS011;6343;50.868;4.700;2022-10-16T09:31:29;5.83;;;1.47;;
12554;SDS011;6343;50.868;4.700;2022-10-16T09:33:59;2.47;;;1.40;;
12554;SDS011;6343;50.868;4.700;2022-10-16T09:36:26;2.27;;;1.30;;
12554;SDS011;6343;50.868;4.700;2022-10-16T09:39:04;8.87;;;1.60;;
12554;SDS011;6343;50.868;4.700;2022-10-16T09:41:30;3.60;;;1.80;;
12554;SDS011;6343;50.868;4.700;2022-10-16T09:43:57;5.67;;;1.60;;
12554;SDS011;6343;50.868;4.700;2022-10-16T09:48:54;5.40;;;1.80;;
12554;SDS011;6343;50.868;4.700;2022-10-16T09:53:48;9.97;;;2.20;;
12554;SDS011;6343;50.868;4.700;2022-10-16T09:56:24;5.13;;;1.70;;
12554;SDS011;6343;50.868;4.700;2022-10-16T09:58:51;4.67;;;1.27;;
12554;SDS011;6343;50.868;4.700;2022-10-16T10:01:18;7.43;;;1.87;;
12554;SDS011;6343;50.868;4.700;2022-10-16T10:03:45;4.50;;;1.53;;
12554;SDS011;6343;50.868;4.700;2022-10-16T10:08:52;5.83;;;2.10;;
12554;SDS011;6343;50.868;4.700;2022-10-16T10:11:18;8.30;;;2.07;;
12554;SDS011;6343;50.868;4.700;2022-10-16T10:13:44;3.33;;;1.33;;
12554;SDS011;6343;50.868;4.700;2022-10-16T10:16:10;6.00;;;1.83;;
12554;SDS011;6343;50.868;4.700;2022-10-16T10:18:36;4.33;;;1.80;;
12554;SDS011;6343;50.868;4.700;2022-10-16T10:21:02;7.63;;;1.77;;
12554;SDS011;6343;50.868;4.700;2022-10-16T10:23:30;9.77;;;2.10;;
12554;SDS011;6343;50.868;4.700;2022-10-16T10:26:18;7.00;;;2.63;;
12554;SDS011;6343;50.868;4.700;2022-10-16T10:34:00;4.77;;;1.70;;
12554;SDS011;6343;50.868;4.700;2022-10-16T10:36:29;5.30;;;1.30;;
12554;SDS011;6343;50.868;4.700;2022-10-16T10:39:07;3.77;;;1.20;;
12554;SDS011;6343;50.868;4.700;2022-10-16T10:47:04;3.67;;;1.50;;
12554;SDS011;6343;50.868;4.700;2022-10-16T11:07:20;4.17;;;1.23;;
12554;SDS011;6343;50.868;4.700;2022-10-16T11:09:48;8.40;;;1.20;;
12554;SDS011;6343;50.868;4.700;2022-10-16T11:12:22;3.90;;;1.20;;
12554;SDS011;6343;50.868;4.700;2022-10-16T11:17:41;3.60;;;1.30;;
12554;SDS011;6343;50.868;4.700;2022-10-16T11:20:24;3.53;;;1.17;;
12554;SDS011;6343;50.868;4.700;2022-10-16T11:23:00;4.77;;;1.60;;
12554;SDS011;6343;50.868;4.700;2022-10-16T11:38:03;6.77;;;1.53;;
12554;SDS011;6343;50.868;4.700;2022-10-16T11:40:33;4.80;;;1.40;;
12554;SDS011;6343;50.868;4.700;2022-10-16T11:43:03;4.43;;;1.07;;
12554;SDS011;6343;50.868;4.700;2022-10-16T11:45:34;2.20;;;1.00;;
12554;SDS011;6343;50.868;4.700;2022-10-16T11:48:05;1.97;;;0.97;;
12554;SDS011;6343;50.868;4.700;2022-10-16T11:50:37;3.23;;;1.17;;
12554;SDS011;6343;50.868;4.700;2022-10-16T11:55:50;6.80;;;1.30;;
12554;SDS011;6343;50.868;4.700;2022-10-16T12:05:55;1.83;;;0.90;;
12554;SDS011;6343;50.868;4.700;2022-10-16T12:08:23;1.90;;;0.97;;
12554;SDS011;6343;50.868;4.700;2022-10-16T12:10:50;5.10;;;1.00;;
12554;SDS011;6343;50.868;4.700;2022-10-16T12:19:13;3.17;;;1.40;;
12554;SDS011;6343;50.868;4.700;2022-10-16T12:21:39;4.67;;;1.33;;
12554;SDS011;6343;50.868;4.700;2022-10-16T12:24:05;1.50;;;1.03;;
12554;SDS011;6343;50.868;4.700;2022-10-16T12:26:33;2.40;;;0.70;;
12554;SDS011;6343;50.868;4.700;2022-10-16T12:31:54;2.40;;;1.00;;
12554;SDS011;6343;50.868;4.700;2022-10-16T12:34:22;5.80;;;1.10;;
12554;SDS011;6343;50.868;4.700;2022-10-16T12:36:49;2.93;;;1.23;;
12554;SDS011;6343;50.868;4.700;2022-10-16T12:39:22;4.90;;;1.30;;
12554;SDS011;6343;50.868;4.700;2022-10-16T12:41:53;4.33;;;1.03;;
12554;SDS011;6343;50.868;4.700;2022-10-16T12:44:25;2.37;;;1.13;;
12554;SDS011;6343;50.868;4.700;2022-10-16T12:46:57;3.47;;;1.00;;
12554;SDS011;6343;50.868;4.700;2022-10-16T12:49:31;2.03;;;0.93;;
12554;SDS011;6343;50.868;4.700;2022-10-16T12:51:57;2.87;;;1.10;;
12554;SDS011;6343;50.868;4.700;2022-10-16T12:54:37;3.33;;;1.00;;
12554;SDS011;6343;50.868;4.700;2022-10-16T12:57:13;3.57;;;0.83;;
12554;SDS011;6343;50.868;4.700;2022-10-16T13:05:02;2.40;;;1.27;;
12554;SDS011;6343;50.868;4.700;2022-10-16T13:12:50;3.63;;;1.17;;
12554;SDS011;6343;50.868;4.700;2022-10-16T13:15:22;3.90;;;0.93;;
12554;SDS011;6343;50.868;4.700;2022-10-16T13:25:57;2.57;;;1.23;;
12554;SDS011;6343;50.868;4.700;2022-10-16T13:28:27;2.57;;;0.97;;
12554;SDS011;6343;50.868;4.700;2022-10-16T13:30:54;3.60;;;1.00;;
12554;SDS011;6343;50.868;4.700;2022-10-16T13:35:52;4.30;;;1.33;;
12554;SDS011;6343;50.868;4.700;2022-10-16T13:38:20;3.53;;;1.23;;
12554;SDS011;6343;50.868;4.700;2022-10-16T13:43:16;3.10;;;1.10;;
12554;SDS011;6343;50.868;4.700;2022-10-16T13:45:52;1.80;;;1.00;;
12554;SDS011;6343;50.868;4.700;2022-10-16T13:48:18;3.80;;;1.17;;
12554;SDS011;6343;50.868;4.700;2022-10-16T13:50:44;5.57;;;1.17;;
12554;SDS011;6343;50.868;4.700;2022-10-16T13:53:13;3.73;;;1.30;;
12554;SDS011;6343;50.868;4.700;2022-10-16T13:55:39;3.13;;;1.20;;
12554;SDS011;6343;50.868;4.700;2022-10-16T13:58:12;5.80;;;1.20;;
12554;SDS011;6343;50.868;4.700;2022-10-16T14:00:38;5.70;;;1.47;;
12554;SDS011;6343;50.868;4.700;2022-10-16T14:03:05;1.77;;;1.10;;
12554;SDS011;6343;50.868;4.700;2022-10-16T14:05:32;2.53;;;1.23;;
12554;SDS011;6343;50.868;4.700;2022-10-16T14:08:00;2.73;;;0.90;;
12554;SDS011;6343;50.868;4.700;2022-10-16T14:10:27;1.37;;;0.83;;
12554;SDS011;6343;50.868;4.700;2022-10-16T14:12:59;1.53;;;1.00;;
12554;SDS011;6343;50.868;4.700;2022-10-16T14:15:26;2.00;;;1.10;;
12554;SDS011;6343;50.868;4.700;2022-10-16T14:17:52;2.13;;;1.13;;
12554;SDS011;6343;50.868;4.700;2022-10-16T14:20:20;3.70;;;1.20;;
12554;SDS011;6343;50.868;4.700;2022-10-16T14:22:46;1.70;;;0.90;;
12554;SDS011;6343;50.868;4.700;2022-10-16T14:27:45;4.27;;;1.30;;
12554;SDS011;6343;50.868;4.700;2022-10-16T14:30:16;3.10;;;1.20;;
12554;SDS011;6343;50.868;4.700;2022-10-16T14:32:53;1.37;;;0.70;;
12554;SDS011;6343;50.868;4.700;2022-10-16T14:37:53;5.93;;;1.17;;
12554;SDS011;6343;50.868;4.700;2022-10-16T14:40:20;1.77;;;0.90;;
12554;SDS011;6343;50.868;4.700;2022-10-16T14:42:48;2.53;;;1.20;;
12554;SDS011;6343;50.868;4.700;2022-10-16T14:45:18;1.90;;;0.90;;
12554;SDS011;6343;50.868;4.700;2022-10-16T14:47:48;4.37;;;1.00;;
12554;SDS011;6343;50.868;4.700;2022-10-16T14:50:15;5.03;;;1.07;;
12554;SDS011;6343;50.868;4.700;2022-10-16T14:52:41;3.60;;;1.10;;
12554;SDS011;6343;50.868;4.700;2022-10-16T14:55:09;4.97;;;1.20;;
12554;SDS011;6343;50.868;4.700;2022-10-16T14:57:35;4.43;;;1.33;;
12554;SDS011;6343;50.868;4.700;2022-10-16T15:00:02;3.43;;;1.00;;
12554;SDS011;6343;50.868;4.700;2022-10-16T15:02:30;3.50;;;1.13;;
12554;SDS011;6343;50.868;4.700;2022-10-16T15:04:57;1.93;;;0.90;;
12554;SDS011;6343;50.868;4.700;2022-10-16T15:07:23;1.60;;;0.80;;
12554;SDS011;6343;50.868;4.700;2022-10-16T15:09:49;2.67;;;1.10;;
12554;SDS011;6343;50.868;4.700;2022-10-16T15:12:16;2.53;;;1.30;;
12554;SDS011;6343;50.868;4.700;2022-10-16T15:14:43;4.47;;;1.13;;
12554;SDS011;6343;50.868;4.700;2022-10-16T15:17:09;3.33;;;1.13;;
12554;SDS011;6343;50.868;4.700;2022-10-16T15:19:36;3.80;;;1.00;;
12554;SDS011;6343;50.868;4.700;2022-10-16T15:22:02;3.60;;;1.40;;
12554;SDS011;6343;50.868;4.700;2022-10-16T15:24:28;4.10;;;1.47;;
12554;SDS011;6343;50.868;4.700;2022-10-16T15:26:54;5.17;;;1.13;;
12554;SDS011;6343;50.868;4.700;2022-10-16T15:29:20;3.97;;;1.20;;
12554;SDS011;6343;50.868;4.700;2022-10-16T15:31:46;3.23;;;1.00;;
12554;SDS011;6343;50.868;4.700;2022-10-16T15:34:13;4.00;;;1.03;;
12554;SDS011;6343;50.868;4.700;2022-10-16T15:36:39;2.93;;;1.10;;
12554;SDS011;6343;50.868;4.700;2022-10-16T15:39:06;4.73;;;1.10;;
12554;SDS011;6343;50.868;4.700;2022-10-16T15:41:36;4.23;;;1.40;;
12554;SDS011;6343;50.868;4.700;2022-10-16T15:44:02;2.70;;;1.00;;
12554;SDS011;6343;50.868;4.700;2022-10-16T15:46:29;4.60;;;1.27;;
12554;SDS011;6343;50.868;4.700;2022-10-16T15:48:57;4.30;;;1.00;;
12554;SDS011;6343;50.868;4.700;2022-10-16T15:51:23;6.83;;;2.77;;
12554;SDS011;6343;50.868;4.700;2022-10-16T15:53:49;2.90;;;1.00;;
12554;SDS011;6343;50.868;4.700;2022-10-16T15:56:16;3.80;;;1.10;;
12554;SDS011;6343;50.868;4.700;2022-10-16T15:58:42;4.20;;;0.90;;
12554;SDS011;6343;50.868;4.700;2022-10-16T16:01:09;2.43;;;1.07;;
12554;SDS011;6343;50.868;4.700;2022-10-16T16:03:36;2.37;;;1.07;;
12554;SDS011;6343;50.868;4.700;2022-10-16T16:06:06;2.97;;;1.50;;
12554;SDS011;6343;50.868;4.700;2022-10-16T16:08:33;3.67;;;1.40;;
12554;SDS011;6343;50.868;4.700;2022-10-16T16:13:28;2.47;;;1.40;;
12554;SDS011;6343;50.868;4.700;2022-10-16T16:15:54;9.10;;;1.70;;
12554;SDS011;6343;50.868;4.700;2022-10-16T16:18:20;2.80;;;1.50;;
12554;SDS011;6343;50.868;4.700;2022-10-16T16:20:47;5.20;;;1.70;;
12554;SDS011;6343;50.868;4.700;2022-10-16T16:23:13;6.20;;;1.77;;
12554;SDS011;6343;50.868;4.700;2022-10-16T16:25:40;6.10;;;1.13;;
12554;SDS011;6343;50.868;4.700;2022-10-16T16:28:06;6.83;;;1.30;;
12554;SDS011;6343;50.868;4.700;2022-10-16T16:30:32;4.10;;;1.30;;
12554;SDS011;6343;50.868;4.700;2022-10-16T16:32:58;3.13;;;1.37;;
12554;SDS011;6343;50.868;4.700;2022-10-16T16:35:24;3.83;;;1.67;;
12554;SDS011;6343;50.868;4.700;2022-10-16T16:37:50;6.57;;;1.97;;
12554;SDS011;6343;50.868;4.700;2022-10-16T16:40:16;6.57;;;2.57;;
12554;SDS011;6343;50.868;4.700;2022-10-16T16:42:43;10.03;;;2.77;;
12554;SDS011;6343;50.868;4.700;2022-10-16T16:45:09;6.17;;;2.10;;
12554;SDS011;6343;50.868;4.700;2022-10-16T16:47:35;5.57;;;2.50;;
12554;SDS011;6343;50.868;4.700;2022-10-16T16:50:01;4.43;;;2.23;;
12554;SDS011;6343;50.868;4.700;2022-10-16T16:52:29;5.67;;;2.23;;
12554;SDS011;6343;50.868;4.700;2022-10-16T16:54:56;6.67;;;1.93;;
12554;SDS011;6343;50.868;4.700;2022-10-16T16:57:22;4.97;;;2.10;;
12554;SDS011;6343;50.868;4.700;2022-10-16T16:59:49;3.87;;;1.83;;
12554;SDS011;6343;50.868;4.700;2022-10-16T17:02:16;6.00;;;2.00;;
12554;SDS011;6343;50.868;4.700;2022-10-16T17:04:42;3.87;;;2.17;;
12554;SDS011;6343;50.868;4.700;2022-10-16T17:07:08;5.70;;;1.93;;
12554;SDS011;6343;50.868;4.700;2022-10-16T17:09:35;3.73;;;1.87;;
12554;SDS011;6343;50.868;4.700;2022-10-16T17:12:01;3.07;;;1.73;;